EDSB/FKB METAR and TAF weather

Enter ICAO airport designator
Station Type Date Time Source
EDSB METAR 2018/01/22 19:50 UTC NOAA

EDSB 221950Z 26006KT 230V300 8000 FEW025 SCT045 09/08 Q1016


Station Type Date Time Source
EDSB Decoded METAR 2018/01/22 19:50 UTC NOAA

Karlsruhe, Baden Wurttemberg, Germany (EDSB) 48-46-43N 008-04-47E
Jan 22, 2018 - 02:50 PM EST / 2018.01.22 1950 UTC
Wind: from the W (260 degrees) at 7 MPH (6 KT) (direction variable):0
Visibility: 4 mile(s):0
Sky conditions: partly cloudy
Temperature: 48 F (9 C)
Dew Point: 46 F (8 C)
Relative Humidity: 93%
Pressure (altimeter): 30.00 in. Hg (1016 hPa)
ob: EDSB 221950Z 26006KT 230V300 8000 FEW025 SCT045 09/08 Q1016
cycle: 20

Station Type Date Time Source
EDSB TAF 2018/01/22 18:27 UTC NOAA

TAF EDSB 221700Z 2218/2318 24004KT 9000 BKN030
TEMPO 2218/2221 3000 BR BKN010
BECMG 2306/2308 21009KT


Example: see airport list